Sunflower Gold — JD2460 — position and weather

sailwx.info

Track history (hours):
 
Tides and Currents Weather Stations Pressure Air Temp Water Temp Dewpoint Dewpoint Depression Visibility Wind Speed Wind Dir Waves Ship Positions

Sunflower Gold

Last reported at 2016-May-25 11:18 UTC. Time now 2016-May-25 20:49 UTC.
Position N 34°36' E 134°53'.

Length 166 m; draft 5.8 m.

Type: Passenger vessel. MMSI: 431000331.

Date/timePositionNaut miles runAvg speedWind from/ knotsBaromVisibWave heightAir tempDewpointWater temp
2016-May-25 11:18N 34°36' E 134°53'1520.3
2016-May-25 10:34N 34°36' E 135°11'7 6.6
2016-May-25 09:29N 34°42' E 135°17'0 0.0
2016-May-25 08:29N 34°42' E 135°17'0 0.0
2016-May-25 06:17N 34°42' E 135°17'0 0.0
2016-May-25 05:29N 34°42' E 135°17'0 0.0
2016-May-25 04:29N 34°42' E 135°17'0 0.0
2016-May-25 03:23N 34°42' E 135°17'0 0.0
2016-May-25 02:29N 34°42' E 135°17'0 0.0
2016-May-25 01:23N 34°42' E 135°17'0 0.0
2016-May-25 00:29N 34°42' E 135°17'0 0.0
2016-May-24 23:17N 34°42' E 135°17'0 0.0
2016-May-24 22:29N 34°42' E 135°17'0 0.0
2016-May-24 21:33N 34°42' E 135°17'1111.4
2016-May-24 20:34N 34°35' E 135°06'14 0.4
2016-May-23 11:28N 34°34' E 134°49'1921.1
2016-May-23 10:33N 34°36' E 135°12'7 6.6
2016-May-23 09:30N 34°42' E 135°17'0 0.0
2016-May-23 08:18N 34°42' E 135°17'0 0.0
2016-May-23 07:30N 34°42' E 135°17'0 0.0
2016-May-23 06:30N 34°42' E 135°17'0 0.0
2016-May-23 05:30N 34°42' E 135°17'0 0.0
2016-May-23 04:30N 34°42' E 135°17'0 0.0
2016-May-23 03:30N 34°42' E 135°17'0 0.0
2016-May-23 02:30N 34°42' E 135°17'0 0.0
2016-May-23 01:18N 34°42' E 135°17'0 0.0
2016-May-23 00:30N 34°42' E 135°17'0 0.0
2016-May-22 23:30N 34°42' E 135°17'0 0.0
2016-May-22 22:30N 34°42' E 135°17'0 0.0
2016-May-22 21:33N 34°42' E 135°17'1111.3
2016-May-22 20:34N 34°34' E 135°07'15 0.5
2016-May-21 12:16N 34°35' E 134°49'1521.3
2016-May-21 11:33N 34°36' E 135°07'10 9.9
2016-May-21 10:33N 34°42' E 135°17'0 0.0
2016-May-21 09:26N 34°42' E 135°17'0 0.0
2016-May-21 08:32N 34°42' E 135°17'0 0.0
2016-May-21 07:26N 34°42' E 135°17'0 0.0
2016-May-21 06:32N 34°42' E 135°17'0 0.0
2016-May-21 05:32N 34°42' E 135°17'0 0.0
2016-May-21 04:32N 34°42' E 135°17'0 0.0
2016-May-21 03:32N 34°42' E 135°17'0 0.0
2016-May-21 02:32N 34°42' E 135°17'0 0.0
2016-May-21 01:32N 34°42' E 135°17'0 0.0
2016-May-21 00:32N 34°42' E 135°17'0 0.0
2016-May-20 23:26N 34°42' E 135°17'1 1.3
2016-May-20 22:33N 34°41' E 135°18'1514.5
2016-May-20 21:33N 34°37' E 135°01'9 0.2
2016-May-19 11:25N 34°35' E 134°51'1720.0
2016-May-19 10:33N 34°37' E 135°12'7 6.0
2016-May-19 09:28N 34°42' E 135°17'0 0.0
2016-May-19 08:28N 34°42' E 135°17'0 0.0
2016-May-19 07:28N 34°42' E 135°17'0 0.0
2016-May-19 06:10N 34°42' E 135°17'0 0.0
2016-May-19 04:28N 34°42' E 135°17'0 0.0
2016-May-19 03:28N 34°42' E 135°17'0 0.0
2016-May-19 02:28N 34°42' E 135°17'0 0.0
2016-May-19 01:28N 34°42' E 135°17'0 0.0
2016-May-19 00:22N 34°42' E 135°17'0 0.0
2016-May-18 23:16N 34°42' E 135°17'0 0.0
2016-May-18 22:28N 34°42' E 135°17'0 0.0
2016-May-18 21:32N 34°42' E 135°17'1010.7
2016-May-18 20:33N 34°35' E 135°08'2019.8
2016-May-18 19:33N 34°31' E 134°44'7 0.2
2016-May-17 11:22N 34°35' E 134°52'1620.3
2016-May-17 10:33N 34°36' E 135°12'7 6.5
2016-May-17 09:26N 34°42' E 135°17'0 0.0
2016-May-17 08:32N 34°42' E 135°17'0 0.0
2016-May-17 07:32N 34°42' E 135°17'0 0.0
2016-May-17 06:20N 34°42' E 135°17'0 0.0
2016-May-17 05:26N 34°42' E 135°17'0 0.0
2016-May-17 04:32N 34°42' E 135°17'0 0.0
2016-May-17 03:26N 34°42' E 135°17'0 0.0
2016-May-17 02:26N 34°42' E 135°17'0 0.0
2016-May-17 01:32N 34°42' E 135°17'0 0.0
2016-May-17 00:26N 34°42' E 135°17'0 0.0
2016-May-16 23:26N 34°42' E 135°17'0 0.0
2016-May-16 22:32N 34°42' E 135°17'1 1.0
2016-May-16 21:34N 34°41' E 135°18'1514.3
2016-May-16 20:33N 34°37' E 135°01'  
Track history (hours):
 
Tides and Currents Weather Stations Pressure Air Temp Water Temp Dewpoint Dewpoint Depression Visibility Wind Speed Wind Dir Waves Ship Positions

Sunflower Gold

Last reported at 2016-May-25 11:18 UTC. Time now 2016-May-25 20:49 UTC.
Position N 34°36' E 134°53'.

Length 166 m; draft 5.8 m.

Type: Passenger vessel. MMSI: 431000331.

Date/timePositionNaut miles runAvg speedWind from/ knotsBaromVisibWave heightAir tempDewpointWater temp
2016-May-25 11:18N 34°36' E 134°53'1520.3
2016-May-25 10:34N 34°36' E 135°11'7 6.6
2016-May-25 09:29N 34°42' E 135°17'0 0.0
2016-May-25 08:29N 34°42' E 135°17'0 0.0
2016-May-25 06:17N 34°42' E 135°17'0 0.0
2016-May-25 05:29N 34°42' E 135°17'0 0.0
2016-May-25 04:29N 34°42' E 135°17'0 0.0
2016-May-25 03:23N 34°42' E 135°17'0 0.0
2016-May-25 02:29N 34°42' E 135°17'0 0.0
2016-May-25 01:23N 34°42' E 135°17'0 0.0
2016-May-25 00:29N 34°42' E 135°17'0 0.0
2016-May-24 23:17N 34°42' E 135°17'0 0.0
2016-May-24 22:29N 34°42' E 135°17'0 0.0
2016-May-24 21:33N 34°42' E 135°17'1111.4
2016-May-24 20:34N 34°35' E 135°06'14 0.4
2016-May-23 11:28N 34°34' E 134°49'1921.1
2016-May-23 10:33N 34°36' E 135°12'7 6.6
2016-May-23 09:30N 34°42' E 135°17'0 0.0
2016-May-23 08:18N 34°42' E 135°17'0 0.0
2016-May-23 07:30N 34°42' E 135°17'0 0.0
2016-May-23 06:30N 34°42' E 135°17'0 0.0
2016-May-23 05:30N 34°42' E 135°17'0 0.0
2016-May-23 04:30N 34°42' E 135°17'0 0.0
2016-May-23 03:30N 34°42' E 135°17'0 0.0
2016-May-23 02:30N 34°42' E 135°17'0 0.0
2016-May-23 01:18N 34°42' E 135°17'0 0.0
2016-May-23 00:30N 34°42' E 135°17'0 0.0
2016-May-22 23:30N 34°42' E 135°17'0 0.0
2016-May-22 22:30N 34°42' E 135°17'0 0.0
2016-May-22 21:33N 34°42' E 135°17'1111.3
2016-May-22 20:34N 34°34' E 135°07'15 0.5
2016-May-21 12:16N 34°35' E 134°49'1521.3
2016-May-21 11:33N 34°36' E 135°07'10 9.9
2016-May-21 10:33N 34°42' E 135°17'0 0.0
2016-May-21 09:26N 34°42' E 135°17'0 0.0
2016-May-21 08:32N 34°42' E 135°17'0 0.0
2016-May-21 07:26N 34°42' E 135°17'0 0.0
2016-May-21 06:32N 34°42' E 135°17'0 0.0
2016-May-21 05:32N 34°42' E 135°17'0 0.0
2016-May-21 04:32N 34°42' E 135°17'0 0.0
2016-May-21 03:32N 34°42' E 135°17'0 0.0
2016-May-21 02:32N 34°42' E 135°17'0 0.0
2016-May-21 01:32N 34°42' E 135°17'0 0.0
2016-May-21 00:32N 34°42' E 135°17'0 0.0
2016-May-20 23:26N 34°42' E 135°17'1 1.3
2016-May-20 22:33N 34°41' E 135°18'1514.5
2016-May-20 21:33N 34°37' E 135°01'9 0.2
2016-May-19 11:25N 34°35' E 134°51'1720.0
2016-May-19 10:33N 34°37' E 135°12'7 6.0
2016-May-19 09:28N 34°42' E 135°17'0 0.0
2016-May-19 08:28N 34°42' E 135°17'0 0.0
2016-May-19 07:28N 34°42' E 135°17'0 0.0
2016-May-19 06:10N 34°42' E 135°17'0 0.0
2016-May-19 04:28N 34°42' E 135°17'0 0.0
2016-May-19 03:28N 34°42' E 135°17'0 0.0
2016-May-19 02:28N 34°42' E 135°17'0 0.0
2016-May-19 01:28N 34°42' E 135°17'0 0.0
2016-May-19 00:22N 34°42' E 135°17'0 0.0
2016-May-18 23:16N 34°42' E 135°17'0 0.0
2016-May-18 22:28N 34°42' E 135°17'0 0.0
2016-May-18 21:32N 34°42' E 135°17'1010.7
2016-May-18 20:33N 34°35' E 135°08'2019.8
2016-May-18 19:33N 34°31' E 134°44'7 0.2
2016-May-17 11:22N 34°35' E 134°52'1620.3
2016-May-17 10:33N 34°36' E 135°12'7 6.5
2016-May-17 09:26N 34°42' E 135°17'0 0.0
2016-May-17 08:32N 34°42' E 135°17'0 0.0
2016-May-17 07:32N 34°42' E 135°17'0 0.0
2016-May-17 06:20N 34°42' E 135°17'0 0.0
2016-May-17 05:26N 34°42' E 135°17'0 0.0
2016-May-17 04:32N 34°42' E 135°17'0 0.0
2016-May-17 03:26N 34°42' E 135°17'0 0.0
2016-May-17 02:26N 34°42' E 135°17'0 0.0
2016-May-17 01:32N 34°42' E 135°17'0 0.0
2016-May-17 00:26N 34°42' E 135°17'0 0.0
2016-May-16 23:26N 34°42' E 135°17'0 0.0
2016-May-16 22:32N 34°42' E 135°17'1 1.0
2016-May-16 21:34N 34°41' E 135°18'1514.3
2016-May-16 20:33N 34°37' E 135°01'  

Dump ship's entire track history